createdAt,value
2022-09-22T03:02:09.611Z,5.20
2022-09-22T03:04:36.817Z,5.50
2022-09-22T03:07:06.841Z,5.70
2022-09-22T03:09:34.137Z,5.60
2022-09-22T03:12:01.598Z,5.80
2022-09-22T03:14:28.746Z,5.80
2022-09-22T03:16:55.989Z,5.70
2022-09-22T03:19:23.151Z,6.00
2022-09-22T03:21:50.276Z,6.10
2022-09-22T03:24:17.480Z,5.70
2022-09-22T03:26:44.608Z,5.80
2022-09-22T03:29:11.792Z,5.60
2022-09-22T03:31:38.893Z,5.60
2022-09-22T03:34:06.095Z,5.60
2022-09-22T03:36:33.251Z,5.90
2022-09-22T03:39:00.444Z,6.10
2022-09-22T03:41:27.672Z,6.00
2022-09-22T03:43:54.860Z,5.90
2022-09-22T03:46:22.124Z,5.90
2022-09-22T03:48:49.288Z,5.80
2022-09-22T03:51:16.572Z,5.40
2022-09-22T03:53:43.718Z,5.30
2022-09-22T03:56:15.425Z,5.50
2022-09-22T03:58:43.412Z,5.60
2022-09-22T04:01:11.405Z,5.90
2022-09-22T04:03:39.109Z,5.70
2022-09-22T04:06:06.585Z,5.80
2022-09-22T04:08:34.111Z,5.70
2022-09-22T04:11:01.772Z,5.70
2022-09-22T04:13:28.987Z,5.90
2022-09-22T04:15:56.316Z,5.90
2022-09-22T04:18:23.524Z,6.00
2022-09-22T04:20:51.343Z,5.50
2022-09-22T04:23:18.436Z,5.30
2022-09-22T04:25:45.591Z,5.60
2022-09-22T04:28:12.725Z,5.60
2022-09-22T04:30:39.982Z,5.70
2022-09-22T04:33:07.164Z,5.70
2022-09-22T04:35:34.274Z,5.60
2022-09-22T04:38:01.613Z,5.40
2022-09-22T04:40:29.610Z,5.40
2022-09-22T04:42:57.482Z,5.50
2022-09-22T04:45:24.736Z,5.40
2022-09-22T04:47:53.349Z,5.50
2022-09-22T04:50:22.544Z,5.60
2022-09-22T04:52:52.624Z,5.50
2022-09-22T04:55:21.103Z,5.60
2022-09-22T04:57:52.680Z,5.50
2022-09-22T05:00:22.017Z,5.50
2022-09-22T05:02:49.566Z,5.60
2022-09-22T05:05:17.565Z,5.50
2022-09-22T05:07:51.971Z,5.50
2022-09-22T05:10:19.201Z,5.50
2022-09-22T05:12:46.801Z,5.60
2022-09-22T05:15:14.630Z,5.50
2022-09-22T05:17:53.009Z,5.60
2022-09-22T05:20:21.218Z,5.60
2022-09-22T05:22:48.804Z,5.50
2022-09-22T05:25:18.391Z,5.50
2022-09-22T05:27:53.762Z,5.30
2022-09-22T05:30:23.996Z,5.50
2022-09-22T05:32:51.825Z,5.80
2022-09-22T05:35:22.085Z,6.10
2022-09-22T05:37:51.538Z,6.00
2022-09-22T05:40:19.914Z,6.00
2022-09-22T05:42:49.231Z,6.20
2022-09-22T05:45:18.203Z,6.20
2022-09-22T05:47:45.479Z,5.90
2022-09-22T05:50:15.405Z,6.00
2022-09-22T05:52:42.683Z,6.30
2022-09-22T05:55:10.580Z,6.50
2022-09-22T05:57:37.773Z,6.50
2022-09-22T06:00:07.430Z,6.60
2022-09-22T06:02:34.815Z,6.80
2022-09-22T06:05:02.084Z,7.10
2022-09-22T06:07:29.286Z,7.60
2022-09-22T06:09:56.439Z,7.60
2022-09-22T06:12:23.701Z,7.70
2022-09-22T06:14:50.804Z,8.20
2022-09-22T06:17:17.971Z,8.60
2022-09-22T06:19:50.109Z,8.50
2022-09-22T06:22:18.000Z,8.70
2022-09-22T06:24:45.745Z,8.60
2022-09-22T06:27:12.897Z,8.60
2022-09-22T06:29:41.626Z,9.30
2022-09-22T06:32:09.418Z,10.90
2022-09-22T06:34:37.934Z,14.10
2022-09-22T06:37:08.668Z,17.30
2022-09-22T06:39:38.794Z,20.60
2022-09-22T06:42:06.591Z,23.10
2022-09-22T06:44:33.778Z,25.70
2022-09-22T06:47:05.394Z,27.60
2022-09-22T06:49:32.674Z,29.20
2022-09-22T06:52:00.137Z,29.70
2022-09-22T06:54:27.280Z,30.30
2022-09-22T06:56:55.640Z,31.00
2022-09-22T06:59:22.806Z,28.80
2022-09-22T07:01:50.081Z,26.90
2022-09-22T07:04:17.691Z,27.80
2022-09-22T07:06:45.722Z,29.90
2022-09-22T07:09:12.882Z,31.70
2022-09-22T07:11:40.639Z,31.00
2022-09-22T07:14:08.695Z,30.60
2022-09-22T07:16:36.561Z,31.00
2022-09-22T07:19:05.512Z,31.40
2022-09-22T07:21:36.476Z,32.00
2022-09-22T07:24:05.294Z,33.40
2022-09-22T07:26:35.483Z,34.30
2022-09-22T07:29:08.434Z,34.40
2022-09-22T07:31:36.724Z,33.50
2022-09-22T07:34:04.393Z,30.70
2022-09-22T07:36:33.366Z,26.50
2022-09-22T07:39:08.478Z,23.30
2022-09-22T07:41:41.716Z,19.50
2022-09-22T07:44:44.625Z,17.60
2022-09-22T07:47:12.160Z,16.60
2022-09-22T07:49:39.307Z,15.30
2022-09-22T07:52:06.443Z,14.00
2022-09-22T07:54:36.837Z,14.40
2022-09-22T07:57:06.510Z,14.60
2022-09-22T07:59:35.013Z,14.30
2022-09-22T08:02:02.342Z,14.60
2022-09-22T08:04:30.264Z,15.00
2022-09-22T08:06:57.419Z,15.30
2022-09-22T08:09:25.842Z,15.80
2022-09-22T08:11:53.649Z,16.20
2022-09-22T08:14:23.161Z,16.90
2022-09-22T08:16:53.590Z,17.20
2022-09-22T08:19:23.490Z,17.50
2022-09-22T08:21:53.896Z,17.80
2022-09-22T08:24:21.800Z,18.20
2022-09-22T08:26:50.727Z,19.20
2022-09-22T08:29:18.104Z,19.40
2022-09-22T08:31:46.961Z,18.90
2022-09-22T08:34:17.482Z,17.80
2022-09-22T08:36:46.348Z,17.30
2022-09-22T08:39:14.468Z,16.80
2022-09-22T08:42:15.583Z,16.80
2022-09-22T08:44:56.123Z,16.30
2022-09-22T08:47:51.951Z,15.80
2022-09-22T08:50:41.379Z,15.10
2022-09-22T08:53:14.085Z,15.30
2022-09-22T08:55:44.507Z,14.90
2022-09-22T08:58:37.422Z,14.50
2022-09-22T09:01:52.331Z,13.40
2022-09-22T09:04:47.200Z,14.00
2022-09-22T09:07:26.732Z,14.40
2022-09-22T09:10:15.511Z,14.10
2022-09-22T09:13:02.231Z,13.90
2022-09-22T09:15:52.294Z,13.60
2022-09-22T09:18:25.365Z,13.60
2022-09-22T09:20:52.555Z,13.90
2022-09-22T09:25:22.083Z,13.60
2022-09-22T09:26:15.755Z,13.60
2022-09-22T09:28:50.747Z,13.80
2022-09-22T09:31:20.930Z,13.90
2022-09-22T09:33:54.390Z,14.10
2022-09-22T09:36:23.618Z,13.40
2022-09-22T09:38:54.957Z,13.60
2022-09-22T09:41:34.053Z,13.60
2022-09-22T09:44:03.090Z,14.00
2022-09-22T09:47:09.176Z,14.40
2022-09-22T09:49:37.740Z,14.60
2022-09-22T09:52:13.348Z,14.70
2022-09-22T09:54:44.684Z,14.10
2022-09-22T09:57:13.083Z,13.60
2022-09-22T10:00:07.213Z,13.80
2022-09-22T10:03:03.209Z,14.10
2022-09-22T10:05:32.389Z,14.10
2022-09-22T10:08:23.592Z,14.60
2022-09-22T10:10:59.125Z,14.40
2022-09-22T10:13:30.599Z,14.70
2022-09-22T10:16:21.440Z,14.60
2022-09-22T10:19:03.033Z,14.50
2022-09-22T10:21:30.349Z,14.50
2022-09-22T10:23:59.655Z,14.50
2022-09-22T10:26:32.480Z,14.70
2022-09-22T10:29:19.923Z,14.80
2022-09-22T10:32:15.013Z,15.20
2022-09-22T10:34:46.958Z,14.90
2022-09-22T10:37:16.849Z,15.20
2022-09-22T10:39:46.153Z,15.30
2022-09-22T10:42:27.330Z,15.20
2022-09-22T10:44:59.056Z,15.00
2022-09-22T10:48:03.512Z,15.00
2022-09-22T10:50:50.662Z,15.20
2022-09-22T10:53:28.750Z,15.10
2022-09-22T10:56:08.857Z,15.40
2022-09-22T10:59:06.029Z,15.60
2022-09-22T11:01:59.085Z,15.30
2022-09-22T11:04:42.136Z,15.50
2022-09-22T11:07:44.498Z,15.70
2022-09-22T11:10:32.873Z,15.50
2022-09-22T11:13:11.694Z,15.30
2022-09-22T11:15:54.261Z,15.30
2022-09-22T11:18:38.937Z,15.50
2022-09-22T11:21:46.993Z,15.40
2022-09-22T11:24:44.397Z,15.20
2022-09-22T11:27:52.335Z,15.00
2022-09-22T11:30:22.645Z,15.20
2022-09-22T11:33:16.932Z,15.20
2022-09-22T11:36:02.990Z,15.20
2022-09-22T11:38:38.803Z,15.40
2022-09-22T11:41:16.108Z,15.40
2022-09-22T11:44:10.018Z,15.40
2022-09-22T11:47:09.471Z,15.50
2022-09-22T11:50:05.090Z,15.50
2022-09-22T11:53:13.484Z,15.50
2022-09-22T11:56:16.689Z,15.30
2022-09-22T11:58:46.535Z,15.50
2022-09-22T12:01:19.260Z,15.00
2022-09-22T12:03:51.921Z,15.20
2022-09-22T12:06:24.553Z,15.20
2022-09-22T12:09:03.559Z,15.30
2022-09-22T12:11:35.774Z,15.70
2022-09-22T12:14:04.388Z,15.90
2022-09-22T12:16:50.565Z,16.00
2022-09-22T12:19:26.552Z,16.00
2022-09-22T12:22:41.954Z,16.10
2022-09-22T12:25:25.943Z,15.90
2022-09-22T12:28:02.725Z,15.90
2022-09-22T12:30:29.946Z,16.20
2022-09-22T12:32:57.174Z,16.20
2022-09-22T12:35:31.655Z,16.00
2022-09-22T12:38:02.183Z,15.70
2022-09-22T12:40:37.210Z,15.80
2022-09-22T12:43:05.940Z,15.80
2022-09-22T12:45:40.903Z,15.60
2022-09-22T12:48:22.707Z,15.70
2022-09-22T12:50:51.187Z,15.90
2022-09-22T12:53:21.516Z,15.70
2022-09-22T12:55:50.116Z,15.40
2022-09-22T12:58:20.362Z,15.70
2022-09-22T13:00:49.609Z,15.90
2022-09-22T13:03:25.723Z,15.80
2022-09-22T13:05:59.702Z,16.00
2022-09-22T13:08:32.808Z,15.90
2022-09-22T13:11:08.094Z,15.80
2022-09-22T13:13:48.711Z,15.90
2022-09-22T13:16:15.868Z,15.70
2022-09-22T13:18:45.373Z,15.70
2022-09-22T13:21:12.558Z,15.70
2022-09-22T13:23:51.767Z,15.70
2022-09-22T13:26:22.944Z,15.70
2022-09-22T13:29:05.972Z,15.80
2022-09-22T13:31:50.996Z,15.60
2022-09-22T13:34:32.224Z,15.80
2022-09-22T13:37:03.039Z,15.70
2022-09-22T13:39:37.106Z,15.90
2022-09-22T13:42:16.150Z,16.20
2022-09-22T13:44:47.575Z,16.20
2022-09-22T13:47:25.107Z,16.10
2022-09-22T13:50:01.581Z,15.90
2022-09-22T13:52:31.810Z,16.20
2022-09-22T13:55:05.149Z,16.10
2022-09-22T13:57:37.190Z,16.10
2022-09-22T14:00:08.027Z,16.30
2022-09-22T14:02:35.576Z,16.30
2022-09-22T14:05:08.859Z,16.30
2022-09-22T14:07:49.555Z,16.20
2022-09-22T14:10:24.149Z,16.00
2022-09-22T14:12:51.587Z,16.30
2022-09-22T14:15:36.639Z,16.30
2022-09-22T14:18:26.372Z,16.20
2022-09-22T14:20:55.791Z,16.00
2022-09-22T14:23:31.061Z,15.80
2022-09-22T14:26:01.851Z,15.60
2022-09-22T14:28:33.469Z,16.00
2022-09-22T14:31:00.978Z,16.10
2022-09-22T14:33:30.947Z,16.30
2022-09-22T14:36:03.659Z,16.30
2022-09-22T14:38:38.072Z,16.20
2022-09-22T14:41:27.167Z,16.30
2022-09-22T14:43:54.650Z,16.40
2022-09-22T14:46:33.573Z,16.40
2022-09-22T14:49:43.208Z,16.10
2022-09-22T14:52:31.818Z,16.10
2022-09-22T14:55:07.516Z,16.10
2022-09-22T14:57:35.936Z,16.10
2022-09-22T15:00:22.462Z,16.30
2022-09-22T15:02:53.056Z,16.40
2022-09-22T15:05:29.897Z,15.80
2022-09-22T15:07:58.336Z,15.60
2022-09-22T15:10:35.847Z,15.40
2022-09-22T15:13:51.309Z,15.50
2022-09-22T15:16:33.952Z,16.00
2022-09-22T15:19:01.559Z,16.20
2022-09-22T15:21:29.362Z,16.30
2022-09-22T15:23:59.435Z,16.20
2022-09-22T15:26:28.891Z,15.80
2022-09-22T15:28:58.962Z,15.70
2022-09-22T15:31:29.869Z,15.40
2022-09-22T15:34:01.358Z,15.10
2022-09-22T15:36:32.786Z,15.10
2022-09-22T15:39:06.806Z,15.10
2022-09-22T15:41:34.894Z,15.30
2022-09-22T15:44:03.122Z,15.50
2022-09-22T15:46:37.950Z,15.50
2022-09-22T15:49:20.755Z,15.60
2022-09-22T15:51:49.467Z,15.20
2022-09-22T15:54:19.752Z,15.20
2022-09-22T15:56:49.742Z,15.30
2022-09-22T15:59:21.680Z,15.10
2022-09-22T16:01:49.574Z,15.10
2022-09-22T16:04:17.277Z,15.20
2022-09-22T16:06:50.017Z,15.10
2022-09-22T16:09:17.779Z,15.20
2022-09-22T16:11:45.021Z,15.30
2022-09-22T16:14:12.467Z,15.50
2022-09-22T16:16:39.896Z,15.40
2022-09-22T16:19:10.425Z,15.50
2022-09-22T16:21:43.010Z,15.40
2022-09-22T16:24:11.616Z,15.20
2022-09-22T16:26:40.112Z,15.00
2022-09-22T16:29:08.353Z,15.00
2022-09-22T16:31:36.269Z,15.00
2022-09-22T16:34:05.978Z,15.00
2022-09-22T16:36:35.354Z,14.90
2022-09-22T16:39:03.629Z,14.90
2022-09-22T16:41:35.386Z,15.00
2022-09-22T16:44:03.904Z,14.80
2022-09-22T16:46:33.471Z,14.70
2022-09-22T16:49:05.805Z,14.70
2022-09-22T16:51:36.414Z,14.50
2022-09-22T16:54:05.697Z,14.50
2022-09-22T16:56:35.463Z,14.50
2022-09-22T16:59:03.285Z,14.50
2022-09-22T17:01:32.333Z,14.50
2022-09-22T17:03:59.509Z,14.50
2022-09-22T17:06:27.035Z,14.30
2022-09-22T17:08:56.875Z,14.00
2022-09-22T17:11:36.647Z,13.80
2022-09-22T17:14:12.245Z,13.90
2022-09-22T17:16:43.837Z,13.80
2022-09-22T17:19:17.171Z,13.60
2022-09-22T17:21:45.853Z,13.30
2022-09-22T17:24:14.822Z,13.10
2022-09-22T17:26:49.859Z,13.20
2022-09-22T17:29:20.996Z,13.30
2022-09-22T17:31:48.451Z,13.40
2022-09-22T17:34:16.162Z,13.20
2022-09-22T17:36:43.873Z,13.10
2022-09-22T17:39:11.652Z,13.10
2022-09-22T17:41:46.667Z,12.90
2022-09-22T17:44:21.490Z,12.60
2022-09-22T17:47:11.438Z,12.70
2022-09-22T17:49:58.423Z,12.80
2022-09-22T17:52:31.833Z,12.80
2022-09-22T17:55:08.161Z,13.00
2022-09-22T17:57:37.985Z,12.80
2022-09-22T18:00:09.748Z,12.80
2022-09-22T18:02:37.087Z,12.60
2022-09-22T18:05:09.878Z,12.60
2022-09-22T18:07:40.222Z,12.60
2022-09-22T18:10:10.194Z,12.50
2022-09-22T18:12:38.160Z,12.40
2022-09-22T18:15:05.927Z,12.40
2022-09-22T18:17:41.207Z,12.20
2022-09-22T18:20:11.479Z,12.10
2022-09-22T18:22:39.943Z,11.90
2022-09-22T18:25:09.019Z,11.90
2022-09-22T18:27:37.270Z,11.80
2022-09-22T18:30:05.216Z,11.80
2022-09-22T18:32:33.267Z,11.90
2022-09-22T18:35:00.590Z,11.50
2022-09-22T18:37:27.949Z,11.60
2022-09-22T18:39:55.153Z,11.50
2022-09-22T18:42:24.325Z,11.40
2022-09-22T18:44:52.147Z,11.30
2022-09-22T18:47:21.473Z,11.30
2022-09-22T18:49:50.228Z,11.20
2022-09-22T18:52:22.983Z,11.20
2022-09-22T18:54:53.101Z,11.20
2022-09-22T18:57:22.064Z,11.20
2022-09-22T18:59:50.773Z,11.10
2022-09-22T19:02:21.508Z,10.90
2022-09-22T19:04:49.700Z,10.70
2022-09-22T19:07:39.063Z,10.70
2022-09-22T19:10:10.324Z,10.70
2022-09-22T19:12:39.632Z,10.60
2022-09-22T19:15:16.401Z,10.60
2022-09-22T19:17:45.414Z,10.40
2022-09-22T19:20:15.617Z,10.40
2022-09-22T19:22:43.356Z,10.40
2022-09-22T19:25:10.922Z,10.60
2022-09-22T19:27:39.751Z,10.30
2022-09-22T19:30:08.748Z,10.20
2022-09-22T19:32:36.296Z,10.30
2022-09-22T19:35:04.198Z,10.00
2022-09-22T19:37:31.440Z,10.00
2022-09-22T19:39:58.663Z,10.10
2022-09-22T19:42:26.573Z,10.10
2022-09-22T19:44:53.706Z,10.20
2022-09-22T19:47:21.109Z,10.20
2022-09-22T19:49:48.361Z,10.20
2022-09-22T19:52:15.995Z,10.20
2022-09-22T19:54:43.176Z,10.30
2022-09-22T19:57:10.500Z,10.20
2022-09-22T19:59:37.729Z,10.20
2022-09-22T20:02:11.111Z,10.10
2022-09-22T20:04:38.665Z,9.90
2022-09-22T20:07:07.301Z,9.90
2022-09-22T20:09:37.333Z,9.80
2022-09-22T20:12:05.362Z,9.70
2022-09-22T20:14:32.979Z,9.40
2022-09-22T20:17:06.373Z,9.50
2022-09-22T20:19:35.944Z,9.50
2022-09-22T20:22:27.566Z,9.50
2022-09-22T20:25:00.430Z,9.40
2022-09-22T20:27:29.176Z,9.50
2022-09-22T20:29:57.592Z,9.30
2022-09-22T20:32:26.526Z,9.00
2022-09-22T20:34:55.395Z,8.80
2022-09-22T20:37:23.475Z,8.70
2022-09-22T20:39:50.998Z,8.70
2022-09-22T20:42:18.230Z,8.90
2022-09-22T20:44:46.872Z,9.10
2022-09-22T20:47:18.867Z,9.10
2022-09-22T20:49:50.830Z,9.10
2022-09-22T20:52:20.393Z,8.90
2022-09-22T20:54:48.294Z,8.70
2022-09-22T20:57:16.169Z,8.80
2022-09-22T20:59:45.492Z,8.80
